Time;durP1;ratioP1;P1;durP2;ratioP2;P2;SDS_P1;SDS_P2;PMS_P1;PMS_P2;Temp;Humidity;BMP_temperature;BMP_pressure;BME280_temperature;BME280_humidity;BME280_pressure;Samples;Min_cycle;Max_cycle;Signal;HPM_P1;HPM_P2
2021/06/05 00:01:19;;;;;;;30.77;23.50;;;19.50;95.10;;;;;;5038405;28;20063;-76
2021/06/05 00:03:45;;;;;;;26.80;22.17;;;19.40;95.10;;;;;;5072784;28;20472;-76
2021/06/05 00:06:14;;;;;;;30.42;22.52;;;19.40;95.40;;;;;;5071578;28;20036;-76
2021/06/05 00:08:39;;;;;;;30.65;21.30;;;19.40;95.20;;;;;;5073142;28;20118;-76
2021/06/05 00:11:07;;;;;;;28.58;22.65;;;19.40;95.20;;;;;;5071724;28;20025;-76
2021/06/05 00:13:43;;;;;;;29.63;23.02;;;19.40;95.20;;;;;;5073089;28;20024;-76
2021/06/05 00:16:15;;;;;;;32.75;24.40;;;19.40;95.30;;;;;;5076427;28;20434;-76
2021/06/05 00:18:42;;;;;;;31.20;23.70;;;19.50;95.30;;;;;;5075257;28;20028;-77
2021/06/05 00:21:07;;;;;;;30.63;24.50;;;19.40;95.30;;;;;;5075433;28;20033;-76
2021/06/05 00:23:33;;;;;;;31.38;23.63;;;19.50;95.30;;;;;;5074969;28;20031;-76
2021/06/05 00:26:00;;;;;;;29.77;22.25;;;19.50;95.40;;;;;;5076516;28;20020;-76
2021/06/05 00:28:26;;;;;;;33.00;24.23;;;19.50;95.40;;;;;;5075058;28;20445;-77
2021/06/05 00:30:53;;;;;;;30.73;22.77;;;19.50;95.50;;;;;;5075033;28;20016;-76
2021/06/05 00:33:19;;;;;;;32.45;24.50;;;19.60;95.50;;;;;;5058514;28;20078;-76
2021/06/05 00:35:44;;;;;;;35.85;24.88;;;19.60;95.70;;;;;;5058188;28;20037;-77
2021/06/05 00:38:10;;;;;;;32.08;25.40;;;19.60;95.40;;;;;;5058972;28;20376;-76
2021/06/05 00:40:41;;;;;;;33.35;26.67;;;19.50;95.40;;;;;;5058514;28;20041;-76
2021/06/05 00:43:09;;;;;;;34.63;26.98;;;19.50;95.40;;;;;;5074741;28;20025;-75
2021/06/05 00:45:39;;;;;;;35.25;26.73;;;19.50;95.40;;;;;;5076080;28;20020;-76
2021/06/05 00:48:05;;;;;;;34.47;25.48;;;19.50;95.40;;;;;;5074816;28;20430;-76
2021/06/05 00:50:32;;;;;;;35.40;26.02;;;19.40;95.40;;;;;;5074657;28;20020;-76
2021/06/05 00:52:58;;;;;;;33.95;25.60;;;19.40;95.40;;;;;;5074849;28;20021;-76
2021/06/05 00:55:27;;;;;;;36.22;26.95;;;19.40;95.50;;;;;;5075072;28;20491;-76
2021/06/05 00:57:52;;;;;;;33.80;27.63;;;19.40;95.50;;;;;;5074677;28;20024;-76
2021/06/05 01:00:29;;;;;;;37.75;28.42;;;19.40;95.50;;;;;;5058015;28;20031;-76
2021/06/05 01:03:03;;;;;;;46.60;38.53;;;19.40;95.60;;;;;;5074603;28;20465;-74
2021/06/05 01:05:30;;;;;;;49.35;41.80;;;19.30;95.70;;;;;;5075961;28;20035;-74
2021/06/05 01:08:13;;;;;;;49.35;41.42;;;19.30;95.80;;;;;;5076157;28;20025;-74
2021/06/05 01:10:41;;;;;;;52.88;42.50;;;19.20;95.80;;;;;;5075747;28;20384;-75
2021/06/05 01:13:39;;;;;;;53.65;41.17;;;19.20;95.80;;;;;;5075514;28;20114;-76
2021/06/05 01:16:11;;;;;;;45.05;35.25;;;19.10;95.80;;;;;;5075768;28;20033;-76
2021/06/05 01:18:46;;;;;;;45.33;34.67;;;19.10;95.80;;;;;;5076054;28;20048;-77
2021/06/05 01:21:45;;;;;;;46.67;34.55;;;19.10;95.80;;;;;;5075606;28;20096;-77
2021/06/05 01:24:34;;;;;;;45.30;37.28;;;19.10;95.80;;;;;;5075197;28;20033;-75
2021/06/05 01:27:10;;;;;;;48.92;39.63;;;19.10;95.80;;;;;;5074664;28;20028;-76
2021/06/05 01:29:44;;;;;;;48.17;37.53;;;19.10;95.70;;;;;;5075346;28;20029;-76
2021/06/05 01:32:14;;;;;;;44.08;35.95;;;19.10;95.70;;;;;;5075452;28;20024;-77
2021/06/05 01:34:43;;;;;;;45.70;36.50;;;19.00;95.70;;;;;;5075236;28;20032;-76
2021/06/05 01:37:12;;;;;;;45.05;36.28;;;19.00;95.70;;;;;;5075038;28;20031;-76
2021/06/05 01:39:41;;;;;;;51.10;37.38;;;19.00;95.70;;;;;;5073658;28;20016;-76
2021/06/05 01:42:11;;;;;;;48.22;39.10;;;19.00;95.70;;;;;;5074597;28;20124;-77
2021/06/05 01:44:39;;;;;;;49.30;38.38;;;19.00;95.70;;;;;;5075005;28;20037;-77
2021/06/05 01:47:05;;;;;;;47.65;37.72;;;18.90;95.70;;;;;;5075040;28;20028;-77
2021/06/05 01:49:31;;;;;;;52.15;38.53;;;19.00;95.80;;;;;;5075248;28;20019;-77
2021/06/05 01:52:07;;;;;;;43.67;36.63;;;18.90;95.80;;;;;;5073571;28;20033;-77
2021/06/05 01:54:38;;;;;;;52.10;38.65;;;18.90;95.80;;;;;;5073728;28;20029;-76
2021/06/05 01:57:08;;;;;;;56.30;42.72;;;19.00;95.90;;;;;;5073363;28;20025;-77
2021/06/05 01:59:34;;;;;;;56.78;42.97;;;19.00;95.90;;;;;;5073444;28;20112;-77
2021/06/05 02:02:00;;;;;;;58.35;42.63;;;19.00;95.90;;;;;;5073767;28;20032;-77
2021/06/05 02:04:26;;;;;;;60.90;45.22;;;19.00;95.90;;;;;;5074939;28;20382;-77
2021/06/05 02:06:53;;;;;;;56.10;42.97;;;19.00;95.90;;;;;;5067410;28;20040;-76
2021/06/05 02:09:22;;;;;;;63.22;47.13;;;19.00;95.90;;;;;;5073175;28;20055;-76
2021/06/05 02:12:02;;;;;;;60.28;45.53;;;19.00;95.90;;;;;;5073305;28;20429;-77
2021/06/05 02:14:38;;;;;;;58.55;45.42;;;19.00;95.90;;;;;;5073003;28;20357;-77
2021/06/05 02:17:08;;;;;;;63.67;46.80;;;18.90;95.90;;;;;;5073174;28;20024;-77
2021/06/05 02:19:38;;;;;;;68.38;50.65;;;18.90;95.90;;;;;;5074175;28;20033;-77
2021/06/05 02:22:08;;;;;;;75.40;54.78;;;18.90;95.80;;;;;;5073475;28;20040;-76
2021/06/05 02:24:46;;;;;;;82.28;58.72;;;18.90;95.70;;;;;;5074007;28;20111;-75
2021/06/05 02:27:15;;;;;;;82.43;59.70;;;18.90;95.60;;;;;;5072777;28;20353;-75
2021/06/05 02:29:44;;;;;;;79.43;55.58;;;18.80;95.60;;;;;;5073193;28;20468;-75
2021/06/05 02:32:11;;;;;;;87.53;59.78;;;18.70;95.50;;;;;;5074186;28;20472;-76
2021/06/05 02:34:39;;;;;;;87.18;61.22;;;18.70;95.50;;;;;;5056308;28;20078;-76
2021/06/05 02:37:09;;;;;;;94.60;61.90;;;18.70;95.50;;;;;;5073712;28;20028;-76
2021/06/05 02:39:35;;;;;;;80.63;54.92;;;18.70;95.50;;;;;;5072690;28;20032;-76
2021/06/05 02:42:02;;;;;;;85.97;55.83;;;18.60;95.50;;;;;;5072423;28;20053;-76
2021/06/05 02:44:30;;;;;;;88.65;55.95;;;18.50;95.50;;;;;;5072395;28;20117;-76
2021/06/05 02:46:59;;;;;;;87.38;57.58;;;18.50;95.50;;;;;;5072659;28;20025;-76
2021/06/05 02:49:32;;;;;;;93.07;61.17;;;18.50;95.50;;;;;;5072958;28;20062;-76
2021/06/05 02:52:09;;;;;;;86.78;58.55;;;18.50;95.40;;;;;;5072296;28;20103;-76
2021/06/05 02:54:36;;;;;;;94.65;59.25;;;18.40;95.40;;;;;;5073791;28;20032;-76
2021/06/05 02:57:05;;;;;;;102.38;61.78;;;18.40;95.40;;;;;;5072307;28;20052;-76
2021/06/05 02:59:31;;;;;;;99.07;61.40;;;18.30;95.40;;;;;;5073615;28;20028;-76
2021/06/05 03:01:57;;;;;;;99.55;63.80;;;18.30;95.40;;;;;;5073641;28;20028;-77
2021/06/05 03:04:23;;;;;;;97.07;61.20;;;18.30;95.40;;;;;;5073805;28;20431;-77
2021/06/05 03:06:50;;;;;;;100.78;61.05;;;18.30;95.40;;;;;;5072879;28;20024;-77
2021/06/05 03:09:16;;;;;;;94.97;59.75;;;18.30;95.40;;;;;;5073378;28;20025;-76
2021/06/05 03:11:44;;;;;;;95.10;59.47;;;18.30;95.50;;;;;;5072334;28;20017;-76
2021/06/05 03:14:10;;;;;;;102.43;63.10;;;18.20;95.40;;;;;;5073891;28;20035;-77
2021/06/05 03:16:36;;;;;;;101.90;59.50;;;18.20;95.40;;;;;;5056011;28;20029;-76
2021/06/05 03:19:02;;;;;;;100.78;62.83;;;18.20;95.40;;;;;;5072093;28;20033;-76
2021/06/05 03:21:28;;;;;;;99.85;60.70;;;18.10;95.30;;;;;;5072036;28;20025;-76
2021/06/05 03:23:53;;;;;;;94.55;57.83;;;18.10;95.40;;;;;;5073853;28;20342;-75
2021/06/05 03:26:20;;;;;;;101.55;59.83;;;18.10;95.40;;;;;;5038863;28;20103;-76
2021/06/05 03:28:46;;;;;;;99.93;62.38;;;18.00;95.30;;;;;;5072471;28;20052;-75
2021/06/05 03:31:14;;;;;;;100.63;58.63;;;18.00;95.30;;;;;;5072029;28;20013;-76
2021/06/05 03:33:40;;;;;;;98.18;58.67;;;17.90;95.30;;;;;;5072161;28;20103;-76
2021/06/05 03:36:07;;;;;;;95.43;59.22;;;17.90;95.30;;;;;;5073222;28;20029;-73
2021/06/05 03:38:34;;;;;;;103.25;62.65;;;17.90;95.40;;;;;;5072438;28;20029;-76
2021/06/05 03:41:00;;;;;;;104.40;62.33;;;17.80;95.30;;;;;;5072966;28;20444;-75
2021/06/05 03:43:26;;;;;;;103.93;60.92;;;17.80;95.60;;;;;;5073598;28;20415;-75
2021/06/05 03:45:52;;;;;;;97.18;56.22;;;17.80;95.40;;;;;;5055394;28;20033;-76
2021/06/05 03:48:18;;;;;;;92.88;54.60;;;17.80;95.40;;;;;;5071872;28;20365;-77
2021/06/05 03:50:48;;;;;;;97.38;57.60;;;17.80;95.50;;;;;;5075348;28;20020;-75
2021/06/05 03:53:14;;;;;;;108.03;58.50;;;17.70;95.50;;;;;;5077015;28;20469;-74
2021/06/05 03:55:41;;;;;;;102.18;57.60;;;17.70;95.50;;;;;;5075726;28;20020;-76
2021/06/05 03:58:07;;;;;;;100.97;59.25;;;17.70;95.50;;;;;;5059006;28;20070;-77
2021/06/05 04:00:42;;;;;;;105.03;59.97;;;17.70;95.50;;;;;;5074530;28;20021;-76
2021/06/05 04:03:09;;;;;;;98.22;56.30;;;17.70;95.60;;;;;;5075581;28;20108;-76
2021/06/05 04:05:35;;;;;;;106.13;56.85;;;17.70;95.60;;;;;;5075148;28;20024;-76
2021/06/05 04:08:04;;;;;;;105.75;57.53;;;17.70;95.60;;;;;;5060904;28;20400;-76
2021/06/05 04:10:30;;;;;;;98.43;53.70;;;17.70;95.60;;;;;;5055399;28;20116;-76
2021/06/05 04:12:58;;;;;;;98.65;54.38;;;17.70;95.60;;;;;;5055545;28;20108;-74
2021/06/05 04:15:24;;;;;;;102.13;54.65;;;17.70;95.60;;;;;;5057408;28;20453;-75
2021/06/05 04:18:13;;;;;;;100.35;56.45;;;17.70;95.60;;;;;;5056798;28;20102;-75
2021/06/05 04:20:41;;;;;;;95.50;51.78;;;17.70;95.70;;;;;;5055375;28;20017;-75
2021/06/05 04:23:07;;;;;;;110.57;57.55;;;17.70;95.60;;;;;;5055161;28;20027;-75
2021/06/05 04:25:33;;;;;;;114.82;56.08;;;17.70;95.70;;;;;;5055258;28;20037;-76
2021/06/05 04:27:59;;;;;;;115.40;60.88;;;17.70;95.70;;;;;;5038468;28;20060;-76
2021/06/05 04:30:27;;;;;;;121.40;60.50;;;17.70;95.70;;;;;;5056306;28;20520;-75
2021/06/05 04:32:53;;;;;;;111.97;55.38;;;17.70;95.70;;;;;;5055415;28;20114;-74
2021/06/05 04:35:21;;;;;;;105.20;53.88;;;17.70;95.80;;;;;;5055100;28;20082;-75
2021/06/05 04:37:47;;;;;;;104.65;51.58;;;17.80;95.80;;;;;;5055247;28;20017;-74
2021/06/05 04:40:13;;;;;;;107.18;51.20;;;17.80;95.80;;;;;;5056122;28;20025;-75
2021/06/05 04:42:39;;;;;;;107.07;52.72;;;17.80;95.70;;;;;;5056195;28;20098;-74
2021/06/05 04:45:06;;;;;;;98.85;49.85;;;17.80;95.70;;;;;;5038273;28;20485;-75
2021/06/05 04:47:33;;;;;;;95.43;49.03;;;17.80;95.80;;;;;;5038249;28;20561;-74
2021/06/05 04:49:58;;;;;;;98.82;51.63;;;17.80;95.80;;;;;;5056003;28;20020;-74
2021/06/05 04:52:24;;;;;;;92.53;50.40;;;17.80;95.80;;;;;;5054988;28;20530;-75
2021/06/05 04:54:50;;;;;;;92.78;48.85;;;17.80;95.80;;;;;;5054570;28;20032;-75
2021/06/05 04:57:16;;;;;;;95.30;49.58;;;17.90;95.90;;;;;;5038056;28;20495;-75
2021/06/05 04:59:42;;;;;;;97.68;51.03;;;17.90;95.90;;;;;;5054373;28;20029;-75
2021/06/05 05:02:08;;;;;;;96.47;50.10;;;17.90;95.90;;;;;;5055986;28;20037;-75
2021/06/05 05:04:33;;;;;;;97.45;48.70;;;17.90;95.80;;;;;;5054452;28;20092;-75
2021/06/05 05:06:59;;;;;;;87.45;45.22;;;17.90;95.90;;;;;;5037995;28;20361;-74
2021/06/05 05:09:25;;;;;;;87.13;45.38;;;17.90;95.90;;;;;;5055569;28;20055;-75
2021/06/05 05:11:51;;;;;;;87.85;47.95;;;18.00;95.90;;;;;;5055370;28;20120;-74
2021/06/05 05:14:16;;;;;;;97.63;47.83;;;17.90;95.80;;;;;;5054421;28;20033;-74
2021/06/05 05:16:42;;;;;;;87.25;47.17;;;17.90;95.80;;;;;;5055352;28;20040;-74
2021/06/05 05:19:08;;;;;;;93.72;44.88;;;17.90;95.80;;;;;;5055325;28;20115;-74
2021/06/05 05:21:34;;;;;;;88.88;45.05;;;17.90;95.80;;;;;;5055400;28;20035;-74
2021/06/05 05:24:00;;;;;;;91.35;47.00;;;18.00;95.90;;;;;;5055487;28;20071;-74
2021/06/05 05:26:26;;;;;;;92.47;48.30;;;18.00;95.90;;;;;;5053943;28;20037;-74
2021/06/05 05:28:54;;;;;;;86.75;44.00;;;18.00;95.90;;;;;;5054213;28;20040;-74
2021/06/05 05:31:23;;;;;;;85.93;45.15;;;18.00;95.80;;;;;;5055263;28;20115;-74
2021/06/05 05:33:49;;;;;;;87.40;43.83;;;18.00;95.80;;;;;;5053970;28;20079;-73
2021/06/05 05:36:23;;;;;;;91.68;45.13;;;17.90;95.80;;;;;;5053778;28;20417;-74
2021/06/05 05:38:50;;;;;;;88.85;44.92;;;18.00;95.80;;;;;;5053928;28;20032;-74
2021/06/05 05:41:19;;;;;;;82.53;44.20;;;18.00;95.90;;;;;;5054908;28;20751;-73
2021/06/05 05:43:45;;;;;;;81.88;44.25;;;18.00;95.90;;;;;;5053735;28;20124;-74
2021/06/05 05:46:11;;;;;;;82.13;43.08;;;18.00;95.90;;;;;;5055118;28;20507;-74
2021/06/05 05:48:38;;;;;;;75.97;40.05;;;18.00;95.90;;;;;;5053534;28;20048;-74
2021/06/05 05:51:07;;;;;;;72.43;38.85;;;18.00;96.00;;;;;;5054849;28;20098;-73
2021/06/05 05:53:35;;;;;;;73.28;39.20;;;18.00;96.10;;;;;;5053357;28;20029;-73
2021/06/05 05:56:01;;;;;;;73.80;39.42;;;18.10;96.00;;;;;;5053408;28;20365;-74
2021/06/05 05:58:26;;;;;;;74.80;41.63;;;18.10;96.00;;;;;;5054791;28;20044;-74
2021/06/05 06:00:53;;;;;;;77.90;42.08;;;18.10;95.90;;;;;;5037127;28;20032;-75
2021/06/05 06:03:20;;;;;;;67.65;37.70;;;18.20;95.90;;;;;;5053388;28;20135;-75
2021/06/05 06:05:46;;;;;;;72.78;37.35;;;18.20;96.20;;;;;;5054805;28;20025;-74
2021/06/05 06:08:14;;;;;;;66.15;37.50;;;18.20;96.00;;;;;;5053425;28;20412;-75
2021/06/05 06:10:41;;;;;;;62.67;35.25;;;18.30;96.00;;;;;;5053095;28;20028;-75
2021/06/05 06:13:07;;;;;;;62.67;34.22;;;18.30;96.00;;;;;;5054199;28;20358;-73
2021/06/05 06:15:34;;;;;;;65.28;37.30;;;18.30;96.00;;;;;;5053158;28;20048;-75
2021/06/05 06:18:00;;;;;;;63.97;35.28;;;18.40;96.00;;;;;;5055330;28;20031;-72
2021/06/05 06:20:43;;;;;;;61.10;34.92;;;18.40;95.90;;;;;;5073859;28;20028;-73
2021/06/05 06:23:12;;;;;;;58.95;33.22;;;18.50;96.00;;;;;;5073997;28;20020;-74
2021/06/05 06:25:41;;;;;;;58.58;33.17;;;18.50;96.00;;;;;;5074005;28;20032;-73
2021/06/05 06:28:12;;;;;;;58.17;35.35;;;18.60;95.90;;;;;;5047367;28;20029;-75
2021/06/05 06:30:40;;;;;;;49.88;31.48;;;18.60;95.80;;;;;;5072735;28;20056;-75
2021/06/05 06:33:08;;;;;;;50.25;30.48;;;18.70;95.80;;;;;;5073741;28;20477;-75
2021/06/05 06:35:35;;;;;;;47.67;28.20;;;18.70;95.70;;;;;;5072667;28;20066;-75
2021/06/05 06:38:04;;;;;;;48.42;28.98;;;18.70;95.70;;;;;;5068152;28;20017;-76
2021/06/05 06:40:34;;;;;;;52.88;30.25;;;18.70;95.70;;;;;;5055564;28;20039;-76
2021/06/05 06:43:02;;;;;;;52.95;32.25;;;18.70;95.60;;;;;;5073592;28;20106;-75
2021/06/05 06:45:28;;;;;;;59.30;34.58;;;18.80;95.80;;;;;;5074418;28;20047;-76
2021/06/05 06:47:55;;;;;;;48.67;30.77;;;18.80;95.50;;;;;;5073572;28;20104;-76
2021/06/05 06:50:24;;;;;;;45.20;28.30;;;18.80;95.60;;;;;;5073637;28;20468;-77
2021/06/05 06:52:50;;;;;;;50.30;30.08;;;18.90;95.50;;;;;;5055882;28;20128;-76
2021/06/05 06:55:16;;;;;;;42.88;28.10;;;18.90;95.50;;;;;;5072444;28;20111;-77
2021/06/05 06:57:42;;;;;;;47.97;29.38;;;18.90;95.50;;;;;;5072275;28;20025;-77
2021/06/05 07:00:12;;;;;;;40.63;27.38;;;19.00;95.50;;;;;;5073558;28;20078;-78
2021/06/05 07:02:38;;;;;;;39.30;25.13;;;19.00;95.50;;;;;;5072286;28;20024;-79
2021/06/05 07:05:05;;;;;;;43.25;25.98;;;19.00;95.50;;;;;;5055442;28;20389;-78
2021/06/05 07:07:31;;;;;;;30.67;21.20;;;19.00;95.40;;;;;;5072137;28;20021;-77
2021/06/05 07:09:57;;;;;;;30.05;21.52;;;19.00;95.20;;;;;;5038895;28;20528;-78
2021/06/05 07:12:24;;;;;;;32.70;22.25;;;19.10;94.90;;;;;;5071153;28;20035;-79
2021/06/05 07:14:50;;;;;;;31.58;20.95;;;19.00;94.70;;;;;;5055550;28;20039;-77
2021/06/05 07:17:16;;;;;;;30.90;21.17;;;19.00;94.50;;;;;;5055902;28;20021;-79
2021/06/05 07:19:42;;;;;;;29.30;21.42;;;19.00;94.30;;;;;;5072191;28;20029;-79
2021/06/05 07:22:08;;;;;;;28.67;19.90;;;19.00;94.20;;;;;;5038747;28;20162;-78
2021/06/05 07:24:34;;;;;;;28.88;20.95;;;19.00;94.10;;;;;;5054345;28;20481;-79
2021/06/05 07:26:59;;;;;;;27.90;20.23;;;19.00;94.10;;;;;;5058378;28;20044;-79
2021/06/05 07:29:25;;;;;;;28.67;21.23;;;19.00;94.10;;;;;;5035762;28;20108;-76
2021/06/05 07:31:52;;;;;;;33.13;22.45;;;19.00;93.80;;;;;;5035644;28;20021;-76
2021/06/05 07:34:21;;;;;;;29.65;20.90;;;19.00;93.70;;;;;;5052457;28;20124;-76
2021/06/05 07:36:52;;;;;;;29.92;21.50;;;19.00;93.70;;;;;;5052111;28;20460;-78
2021/06/05 07:39:22;;;;;;;29.98;20.67;;;19.10;93.70;;;;;;5053455;28;20461;-77
2021/06/05 07:41:48;;;;;;;24.88;19.52;;;19.10;93.60;;;;;;5052043;28;20049;-77
2021/06/05 07:44:15;;;;;;;24.63;19.25;;;19.10;93.60;;;;;;5051832;28;20075;-77
2021/06/05 07:46:46;;;;;;;24.92;17.70;;;19.20;93.50;;;;;;5051781;28;20017;-78
2021/06/05 07:49:12;;;;;;;26.30;18.77;;;19.20;93.40;;;;;;5051744;28;20064;-78
2021/06/05 07:51:38;;;;;;;24.88;18.48;;;19.20;93.20;;;;;;5060943;28;20037;-78
2021/06/05 07:54:05;;;;;;;23.67;17.83;;;19.20;93.20;;;;;;5054609;28;20531;-77
2021/06/05 07:56:31;;;;;;;22.73;17.15;;;19.20;93.10;;;;;;5051855;28;20056;-77
2021/06/05 07:58:57;;;;;;;20.08;16.60;;;19.20;93.10;;;;;;5052873;28;20035;-77
2021/06/05 08:01:23;;;;;;;23.25;17.67;;;19.20;93.10;;;;;;5035600;28;20033;-77
2021/06/05 08:03:49;;;;;;;20.45;14.15;;;19.20;93.10;;;;;;5035349;28;20419;-76
2021/06/05 08:06:15;;;;;;;18.50;15.45;;;19.20;93.00;;;;;;5053326;28;20025;-76
2021/06/05 08:08:41;;;;;;;20.35;14.48;;;19.10;93.20;;;;;;5035365;28;20388;-76
2021/06/05 08:11:07;;;;;;;22.10;15.13;;;19.10;93.00;;;;;;5053063;28;20061;-76
2021/06/05 08:13:33;;;;;;;15.75;13.15;;;19.10;93.00;;;;;;5051766;28;20029;-74
2021/06/05 08:15:59;;;;;;;17.20;13.38;;;19.10;92.90;;;;;;5051905;28;20026;-75
2021/06/05 08:18:25;;;;;;;17.25;14.20;;;19.20;92.90;;;;;;5051583;28;20032;-73
2021/06/05 08:21:02;;;;;;;17.73;13.98;;;19.20;92.80;;;;;;5052781;28;20029;-73
2021/06/05 08:23:29;;;;;;;17.55;13.93;;;19.20;92.80;;;;;;5052768;28;20453;-73
2021/06/05 08:25:56;;;;;;;18.48;13.18;;;19.20;92.80;;;;;;5052895;28;20416;-73
2021/06/05 08:28:23;;;;;;;17.38;12.93;;;19.30;92.70;;;;;;5057834;28;20381;-73
2021/06/05 08:30:51;;;;;;;15.95;13.05;;;19.30;92.70;;;;;;5060568;28;20028;-73
2021/06/05 08:33:18;;;;;;;17.85;13.13;;;19.30;92.70;;;;;;5060134;28;20086;-73
2021/06/05 08:35:44;;;;;;;15.80;12.85;;;19.40;92.70;;;;;;5064258;28;20415;-72
2021/06/05 08:38:13;;;;;;;16.40;12.70;;;19.40;92.70;;;;;;5058607;28;20120;-72
2021/06/05 08:40:46;;;;;;;16.63;12.75;;;19.40;92.90;;;;;;5076215;28;20376;-73
2021/06/05 08:43:23;;;;;;;15.38;11.48;;;19.50;92.60;;;;;;5075982;28;20472;-73
2021/06/05 08:45:49;;;;;;;14.05;11.75;;;19.50;92.50;;;;;;5076273;28;20029;-74
2021/06/05 08:48:18;;;;;;;13.77;10.48;;;19.70;92.50;;;;;;5076338;28;20365;-74
2021/06/05 08:50:43;;;;;;;14.02;10.18;;;19.70;92.40;;;;;;5076277;28;20449;-73
2021/06/05 08:53:24;;;;;;;13.45;10.73;;;19.80;92.30;;;;;;5057042;28;20035;-73
2021/06/05 08:55:59;;;;;;;12.68;9.85;;;19.80;92.20;;;;;;5060296;28;20477;-74
2021/06/05 08:58:31;;;;;;;15.30;11.00;;;19.80;92.20;;;;;;5071758;28;20024;-73
2021/06/05 09:01:28;;;;;;;14.43;10.55;;;19.90;92.10;;;;;;5075737;28;20029;-73
2021/06/05 09:03:57;;;;;;;12.07;9.65;;;19.80;91.90;;;;;;5070148;28;20033;-75
2021/06/05 09:06:40;;;;;;;14.02;11.60;;;19.80;91.80;;;;;;5075633;28;20392;-74
2021/06/05 09:09:09;;;;;;;13.82;11.32;;;19.70;91.70;;;;;;5074559;28;20116;-74
2021/06/05 09:11:36;;;;;;;13.45;11.07;;;19.60;91.60;;;;;;5075584;28;20468;-75
2021/06/05 09:14:02;;;;;;;14.32;10.88;;;19.60;91.70;;;;;;5074613;28;20052;-74
2021/06/05 09:16:52;;;;;;;12.18;10.45;;;19.60;91.70;;;;;;5079432;28;20490;-74
2021/06/05 09:19:31;;;;;;;13.27;10.55;;;19.60;91.70;;;;;;5095704;28;20028;-75
2021/06/05 09:22:06;;;;;;;14.32;10.00;;;19.60;91.60;;;;;;5094306;28;20020;-74
2021/06/05 09:24:31;;;;;;;16.73;12.20;;;19.60;91.60;;;;;;5095495;28;20028;-74
2021/06/05 09:27:09;;;;;;;15.15;12.60;;;19.60;91.60;;;;;;5095915;28;20031;-73
2021/06/05 09:30:05;;;;;;;15.07;12.02;;;19.50;91.70;;;;;;5069243;28;20122;-73
2021/06/05 09:32:33;;;;;;;15.68;13.15;;;19.50;91.80;;;;;;5054116;28;20116;-75
2021/06/05 09:35:20;;;;;;;16.58;14.75;;;19.40;91.90;;;;;;5053936;28;20025;-73
2021/06/05 09:37:53;;;;;;;18.90;14.13;;;19.40;92.00;;;;;;5053646;28;20561;-76
2021/06/05 09:40:19;;;;;;;16.95;14.00;;;19.30;92.00;;;;;;5054147;28;20051;-76
2021/06/05 09:43:10;;;;;;;18.00;14.10;;;19.30;92.10;;;;;;5054841;28;20037;-75
2021/06/05 09:45:44;;;;;;;17.58;12.18;;;19.30;92.20;;;;;;5054138;28;20032;-74
2021/06/05 09:48:30;;;;;;;15.45;13.20;;;19.30;92.30;;;;;;5054026;28;20031;-74
2021/06/05 09:51:03;;;;;;;15.07;12.23;;;19.50;92.40;;;;;;5055038;28;20024;-74
2021/06/05 09:53:38;;;;;;;13.77;11.20;;;19.50;92.40;;;;;;5055063;28;20049;-76
2021/06/05 09:56:23;;;;;;;15.35;12.10;;;19.60;92.10;;;;;;5054799;28;20045;-75
2021/06/05 09:59:07;;;;;;;16.23;12.07;;;19.70;92.10;;;;;;5055384;28;20053;-76
2021/06/05 10:01:34;;;;;;;;;;;19.80;92.00;;;;;;5055035;28;20021;-76
2021/06/05 10:04:17;;;;;;;13.23;10.05;;;19.90;91.80;;;;;;5053458;28;19912;-78
2021/06/05 10:06:44;;;;;;;13.40;9.52;;;20.00;91.70;;;;;;5057890;28;20499;-77
2021/06/05 10:09:25;;;;;;;12.65;10.23;;;20.00;91.50;;;;;;5073978;28;20029;-75
2021/06/05 10:12:32;;;;;;;12.75;9.65;;;20.10;91.50;;;;;;5067981;28;20021;-77
2021/06/05 10:15:03;;;;;;;11.63;9.48;;;20.10;91.30;;;;;;5081490;28;20090;-76
2021/06/05 10:17:38;;;;;;;14.77;9.80;;;20.10;91.30;;;;;;5074218;28;20120;-75
2021/06/05 10:20:22;;;;;;;12.85;10.32;;;20.10;91.20;;;;;;5061090;28;20039;-75
2021/06/05 10:22:57;;;;;;;14.90;10.30;;;20.20;91.00;;;;;;5052947;28;20062;-74
2021/06/05 10:25:39;;;;;;;12.82;9.80;;;20.20;90.90;;;;;;5054434;28;20096;-74
2021/06/05 10:28:19;;;;;;;13.45;9.80;;;20.30;90.90;;;;;;5054452;28;20029;-74
2021/06/05 10:30:47;;;;;;;11.27;8.75;;;20.30;90.80;;;;;;5054307;28;20013;-75
2021/06/05 10:33:41;;;;;;;12.18;8.90;;;20.40;90.80;;;;;;5069111;28;20032;-75
2021/06/05 10:36:17;;;;;;;14.07;11.15;;;20.40;90.50;;;;;;5066363;28;20045;-74
2021/06/05 10:38:48;;;;;;;15.15;11.68;;;20.30;90.30;;;;;;5062782;28;20021;-75
2021/06/05 10:41:25;;;;;;;13.73;11.07;;;20.30;90.10;;;;;;5056302;28;20053;-73
2021/06/05 10:43:51;;;;;;;16.33;10.93;;;20.20;90.10;;;;;;5063221;28;20025;-74
2021/06/05 10:46:23;;;;;;;14.40;10.85;;;20.10;90.10;;;;;;5053511;28;20029;-74
2021/06/05 10:48:51;;;;;;;14.23;11.98;;;20.00;90.10;;;;;;5056021;28;20067;-74
2021/06/05 10:51:26;;;;;;;11.80;10.02;;;20.00;90.50;;;;;;5052749;28;20021;-76
2021/06/05 10:53:57;;;;;;;15.88;11.30;;;20.00;90.30;;;;;;5053777;28;20159;-74
2021/06/05 10:56:41;;;;;;;17.05;12.75;;;20.00;90.30;;;;;;5053019;28;20472;-74
2021/06/05 10:59:31;;;;;;;14.70;11.27;;;20.00;90.30;;;;;;5052285;28;20031;-73
2021/06/05 11:01:57;;;;;;;16.25;12.57;;;20.00;90.40;;;;;;5053434;28;20032;-74
2021/06/05 11:04:32;;;;;;;16.83;13.10;;;19.90;90.20;;;;;;5060937;28;20032;-73
2021/06/05 11:07:04;;;;;;;14.48;12.20;;;19.90;90.20;;;;;;5069632;28;20107;-74
2021/06/05 11:09:30;;;;;;;15.73;11.93;;;20.00;90.40;;;;;;5073280;28;20028;-73
2021/06/05 11:12:03;;;;;;;13.20;10.15;;;20.00;90.40;;;;;;5073323;28;20353;-73
2021/06/05 11:14:35;;;;;;;14.15;11.13;;;20.00;90.40;;;;;;5073338;28;20487;-74
2021/06/05 11:17:01;;;;;;;15.70;11.25;;;20.00;90.30;;;;;;5073759;28;20025;-73
2021/06/05 11:19:41;;;;;;;12.73;10.27;;;20.10;90.30;;;;;;5071920;28;20111;-76
2021/06/05 11:22:22;;;;;;;14.40;11.10;;;20.10;90.20;;;;;;5071995;28;20028;-77
2021/06/05 11:25:17;;;;;;;12.98;10.75;;;20.20;90.10;;;;;;5072524;28;20029;-76
2021/06/05 11:27:42;;;;;;;12.27;10.25;;;20.30;90.10;;;;;;5071765;28;20025;-76
2021/06/05 11:30:20;;;;;;;12.90;10.02;;;20.50;90.00;;;;;;5073832;28;20035;-75
2021/06/05 11:32:55;;;;;;;12.55;9.75;;;20.60;89.60;;;;;;5073260;28;20063;-75
2021/06/05 11:35:58;;;;;;;11.70;9.50;;;20.80;89.30;;;;;;5072485;28;20434;-75
2021/06/05 11:38:24;;;;;;;11.32;8.65;;;20.90;88.80;;;;;;5071998;28;20051;-76
2021/06/05 11:41:02;;;;;;;10.45;9.35;;;21.00;88.00;;;;;;5071944;28;20416;-76
2021/06/05 11:43:27;;;;;;;10.82;8.80;;;20.90;87.70;;;;;;5052941;28;20519;-75
2021/06/05 11:46:01;;;;;;;10.07;9.07;;;20.90;87.30;;;;;;5053172;28;20033;-76
2021/06/05 11:48:44;;;;;;;12.63;9.43;;;20.80;88.10;;;;;;5053486;28;20029;-78
2021/06/05 11:51:19;;;;;;;14.50;10.90;;;20.80;87.50;;;;;;5052362;28;20446;-76
2021/06/05 11:53:50;;;;;;;14.00;10.13;;;20.70;87.20;;;;;;5053263;28;20051;-76
2021/06/05 11:56:27;;;;;;;14.32;12.23;;;20.60;88.10;;;;;;5052857;28;20446;-76
2021/06/05 11:58:53;;;;;;;13.48;10.52;;;20.60;87.60;;;;;;5051703;28;20035;-76
2021/06/05 12:01:29;;;;;;;13.98;10.73;;;20.40;87.80;;;;;;5051592;28;20021;-76
2021/06/05 12:03:58;;;;;;;13.65;11.05;;;20.40;88.00;;;;;;5053075;28;20025;-76
2021/06/05 12:06:26;;;;;;;14.48;11.27;;;20.30;88.00;;;;;;5053355;28;20024;-75
2021/06/05 12:09:24;;;;;;;12.82;10.82;;;20.30;88.10;;;;;;5051636;28;20063;-75
2021/06/05 12:11:56;;;;;;;15.00;12.13;;;20.30;88.30;;;;;;5056643;28;20021;-75
2021/06/05 12:17:25;;;;;;;14.82;11.63;;;20.30;88.10;;;;;;5074173;28;20040;-77
2021/06/05 12:19:50;;;;;;;12.45;9.50;;;20.30;88.10;;;;;;5074521;28;20150;-77
2021/06/05 12:22:27;;;;;;;11.43;9.25;;;20.30;88.20;;;;;;5059005;28;20111;-77
2021/06/05 12:24:54;;;;;;;12.77;9.75;;;20.30;88.30;;;;;;5075362;28;20033;-77
2021/06/05 12:27:38;;;;;;;10.52;9.07;;;20.40;88.30;;;;;;5076488;28;20020;-76
2021/06/05 12:30:07;;;;;;;;;;;20.40;88.30;;;;;;5075011;28;20024;-74
2021/06/05 12:32:33;;;;;;;13.02;9.75;;;20.40;88.10;;;;;;5074877;28;19949;-75
2021/06/05 12:35:16;;;;;;;15.10;10.70;;;20.40;87.90;;;;;;5058314;28;20066;-75
2021/06/05 12:37:49;;;;;;;14.68;11.95;;;20.30;87.80;;;;;;5075361;28;20028;-74
2021/06/05 12:40:25;;;;;;;16.88;14.48;;;20.30;87.80;;;;;;5076299;28;20115;-76
2021/06/05 12:42:51;;;;;;;16.90;14.38;;;20.30;87.70;;;;;;5076017;28;20084;-76
2021/06/05 12:45:26;;;;;;;15.55;13.93;;;20.20;87.90;;;;;;5075083;28;20110;-77
2021/06/05 12:47:56;;;;;;;15.93;13.80;;;20.20;87.80;;;;;;5076201;28;20078;-76